Time;durP1;ratioP1;P1;durP2;ratioP2;P2;SDS_P1;SDS_P2;PMS_P1;PMS_P2;Temp;Humidity;BMP_temperature;BMP_pressure;BME280_temperature;BME280_humidity;BME280_pressure;Samples;Min_cycle;Max_cycle;Signal;HPM_P1;HPM_P2
2022/05/01 00:01:07;;;;;;;13.85;8.55;;;;;;;4.13;94.93;102543.22;4990104;28;20077;-78
2022/05/01 00:03:34;;;;;;;9.10;6.70;;;;;;;4.13;94.32;102545.84;5010672;28;20060;-77
2022/05/01 00:06:04;;;;;;;10.07;6.72;;;;;;;4.08;93.03;102532.13;4989376;28;20077;-77
2022/05/01 00:08:31;;;;;;;11.57;6.15;;;;;;;4.17;91.54;102538.72;4998621;28;20513;-78
2022/05/01 00:10:57;;;;;;;13.32;6.95;;;;;;;4.02;90.83;102510.66;4996748;28;20468;-77
2022/05/01 00:13:24;;;;;;;8.75;5.82;;;;;;;4.18;90.74;102543.06;5027252;28;20041;-77
2022/05/01 00:15:50;;;;;;;9.90;6.68;;;;;;;4.18;88.95;102540.44;5008292;28;20401;-76
2022/05/01 00:18:16;;;;;;;12.73;6.43;;;;;;;4.18;89.10;102531.72;5014768;28;20259;-77
2022/05/01 00:20:42;;;;;;;9.60;6.18;;;;;;;4.21;88.24;102536.84;5007201;28;20595;-77
2022/05/01 00:23:08;;;;;;;9.18;6.18;;;;;;;4.19;88.69;102538.69;4993264;28;20026;-77
2022/05/01 00:25:34;;;;;;;9.82;6.60;;;;;;;4.03;88.73;102512.34;5005542;28;20037;-77
2022/05/01 00:27:59;;;;;;;10.60;6.15;;;;;;;4.18;89.35;102531.72;5004474;28;20033;-77
2022/05/01 00:30:26;;;;;;;11.48;7.03;;;;;;;4.07;88.17;102522.63;5003794;28;20308;-77
2022/05/01 00:38:24;;;;;;;10.07;6.50;;;;;;;4.10;88.09;102532.09;5010734;28;20056;-77
2022/05/01 00:40:50;;;;;;;11.40;6.65;;;;;;;4.07;87.18;102529.59;5012508;28;20105;-76
2022/05/01 00:43:15;;;;;;;8.65;5.40;;;;;;;3.96;86.76;102514.38;5011058;28;20124;-77
2022/05/01 00:45:41;;;;;;;10.77;7.22;;;;;;;4.06;87.25;102528.75;4998555;28;20159;-76
2022/05/01 00:48:07;;;;;;;13.13;7.20;;;;;;;3.91;87.81;102514.56;5014573;28;20056;-77
2022/05/01 00:50:33;;;;;;;8.80;6.35;;;;;;;3.96;88.51;102526.59;5015061;28;20071;-76
2022/05/01 00:52:58;;;;;;;11.38;6.60;;;;;;;3.87;89.47;102506.94;5009302;28;20495;-77
2022/05/01 00:55:24;;;;;;;9.27;6.35;;;;;;;3.90;89.67;102512.03;4996996;28;20052;-76
2022/05/01 00:57:49;;;;;;;9.63;6.28;;;;;;;3.85;90.95;102514.00;5009835;28;20026;-77
2022/05/01 01:00:18;;;;;;;10.63;6.35;;;;;;;3.84;90.12;102512.31;5017045;28;20043;-77
2022/05/01 01:02:46;;;;;;;9.07;5.72;;;;;;;3.84;89.51;102522.75;5013622;28;20282;-77
2022/05/01 01:05:12;;;;;;;11.50;6.47;;;;;;;3.73;88.48;102498.84;5011895;28;20042;-77
2022/05/01 01:07:38;;;;;;;7.85;6.25;;;;;;;3.84;88.46;102514.91;5003647;28;20037;-76
2022/05/01 01:10:04;;;;;;;8.55;5.55;;;;;;;3.88;88.85;102519.09;5015425;28;20041;-77
2022/05/01 01:15:13;;;;;;;8.73;6.07;;;;;;;3.71;87.52;102506.75;4997953;28;20053;-76
2022/05/01 01:17:41;;;;;;;8.25;5.20;;;;;;;3.79;86.47;102520.34;4997835;28;20026;-77
2022/05/01 01:20:11;;;;;;;11.93;5.93;;;;;;;3.76;86.25;102509.16;4992322;28;20037;-76
2022/05/01 01:22:40;;;;;;;8.30;5.30;;;;;;;3.74;86.37;102509.22;5008523;28;20549;-77
2022/05/01 01:25:09;;;;;;;10.63;6.03;;;;;;;3.77;86.66;102526.50;5001973;28;20119;-77
2022/05/01 01:27:35;;;;;;;8.55;5.40;;;;;;;3.76;86.42;102520.44;5008097;28;20112;-77
2022/05/01 01:32:48;;;;;;;8.52;5.88;;;;;;;3.74;87.59;102524.03;5004528;28;20412;-77
2022/05/01 01:35:15;;;;;;;11.13;6.07;;;;;;;3.69;87.61;102517.25;5001702;28;20034;-76
2022/05/01 01:37:44;;;;;;;8.95;5.63;;;;;;;3.66;87.91;102513.94;5012958;28;20201;-76
2022/05/01 01:40:13;;;;;;;9.75;6.32;;;;;;;3.52;87.61;102488.38;5014933;28;20382;-76
2022/05/01 01:42:40;;;;;;;9.75;6.15;;;;;;;3.67;87.64;102516.47;5007957;28;20041;-76
2022/05/01 01:45:07;;;;;;;9.10;5.90;;;;;;;3.65;86.72;102522.66;4999620;28;20058;-77
2022/05/01 01:47:33;;;;;;;11.15;5.78;;;;;;;3.63;86.49;102521.88;5012530;28;20331;-77
2022/05/01 01:49:58;;;;;;;10.85;5.57;;;;;;;3.61;86.81;102523.69;5016087;28;20529;-77
2022/05/01 01:52:24;;;;;;;9.23;5.90;;;;;;;3.58;86.85;102522.06;5012759;28;20068;-77
2022/05/01 01:54:49;;;;;;;8.52;5.22;;;;;;;3.48;86.23;102510.31;5010350;28;20033;-77
2022/05/01 01:57:14;;;;;;;7.53;5.00;;;;;;;3.53;86.79;102516.22;5012683;28;20079;-77
2022/05/01 01:59:40;;;;;;;11.52;6.47;;;;;;;3.51;86.31;102520.63;5013507;28;20029;-77
2022/05/01 02:02:08;;;;;;;11.98;6.50;;;;;;;3.52;87.49;102522.31;5009930;28;20034;-76
2022/05/01 02:04:34;;;;;;;9.23;6.80;;;;;;;3.53;87.79;102515.34;5001639;28;20041;-75
2022/05/01 02:06:59;;;;;;;8.77;6.18;;;;;;;3.49;89.70;102512.03;5028578;28;20037;-77
2022/05/01 02:09:25;;;;;;;10.25;7.60;;;;;;;3.53;90.52;102521.44;5011554;28;20499;-76
2022/05/01 02:11:50;;;;;;;7.53;5.38;;;;;;;3.51;90.08;102525.84;5016345;28;20272;-77
2022/05/01 02:14:16;;;;;;;13.82;7.50;;;;;;;3.47;90.76;102519.06;5013244;28;20022;-76
2022/05/01 02:16:41;;;;;;;13.00;7.03;;;;;;;3.46;90.47;102515.59;5029423;28;20036;-76
2022/05/01 02:19:07;;;;;;;9.15;6.45;;;;;;;3.35;90.50;102504.72;5016290;28;20317;-76
2022/05/01 02:21:35;;;;;;;7.68;6.22;;;;;;;3.40;90.37;102517.63;5013122;28;20753;-76
2022/05/01 02:24:12;;;;;;;9.68;6.88;;;;;;;3.37;89.85;102513.34;5008784;28;20064;-77
2022/05/01 02:26:38;;;;;;;9.60;5.97;;;;;;;3.29;89.35;102505.84;5005006;28;20521;-77
2022/05/01 02:29:09;;;;;;;10.85;6.53;;;;;;;3.33;89.51;102516.16;5012114;28;20036;-77
2022/05/01 02:31:36;;;;;;;9.27;6.22;;;;;;;3.30;88.81;102510.16;5005549;28;20025;-76
2022/05/01 02:34:01;;;;;;;10.75;7.35;;;;;;;3.17;88.46;102489.84;5013223;28;20044;-77
2022/05/01 02:36:26;;;;;;;10.27;6.10;;;;;;;3.19;88.06;102494.06;5011534;28;20481;-76
2022/05/01 02:38:52;;;;;;;9.05;6.43;;;;;;;3.26;88.63;102508.56;4994578;28;20150;-77
2022/05/01 02:41:18;;;;;;;8.02;6.07;;;;;;;3.24;87.38;102510.38;5012685;28;20092;-77
2022/05/01 02:43:44;;;;;;;8.05;5.63;;;;;;;3.23;88.17;102506.09;5008469;28;20125;-77
2022/05/01 02:46:09;;;;;;;11.32;6.28;;;;;;;3.20;88.66;102511.44;4986741;28;20603;-77
2022/05/01 02:48:34;;;;;;;8.15;5.82;;;;;;;3.18;89.12;102508.03;5007317;28;20034;-75
2022/05/01 02:51:04;;;;;;;10.90;6.88;;;;;;;3.19;89.50;102506.28;4987351;28;20030;-75
2022/05/01 02:53:30;;;;;;;12.38;6.22;;;;;;;3.16;90.13;102498.56;4999559;28;20742;-76
2022/05/01 02:55:56;;;;;;;17.05;7.00;;;;;;;3.04;90.00;102495.53;5001935;28;20485;-77
2022/05/01 02:58:21;;;;;;;15.35;6.93;;;;;;;2.98;91.02;102500.13;5011023;28;20704;-77
2022/05/01 03:00:46;;;;;;;12.25;7.20;;;;;;;2.96;92.55;102501.97;5006922;28;20471;-77
2022/05/01 03:03:12;;;;;;;8.60;6.28;;;;;;;2.99;92.87;102509.69;4995237;28;20467;-77
2022/05/01 03:05:37;;;;;;;11.20;6.28;;;;;;;3.00;93.36;102503.53;4999982;28;20030;-75
2022/05/01 03:08:03;;;;;;;9.48;6.38;;;;;;;2.81;92.05;102480.81;5010671;28;20037;-76
2022/05/01 03:10:28;;;;;;;7.72;5.47;;;;;;;2.92;91.31;102500.38;5010920;28;20053;-77
2022/05/01 03:12:54;;;;;;;9.35;6.00;;;;;;;2.70;91.79;102463.84;5011658;28;20285;-76
2022/05/01 03:15:19;;;;;;;8.48;6.00;;;;;;;2.84;90.76;102488.50;5009767;28;20049;-75
2022/05/01 03:23:13;;;;;;;9.93;5.65;;;;;;;2.78;92.72;102488.72;5002786;28;20475;-76
2022/05/01 03:25:39;;;;;;;10.43;6.75;;;;;;;2.62;93.60;102485.03;5003805;28;20495;-76
2022/05/01 03:28:04;;;;;;;10.40;6.10;;;;;;;2.47;94.29;102470.81;5011019;28;20481;-76
2022/05/01 03:30:30;;;;;;;11.25;6.07;;;;;;;2.40;95.09;102464.97;4994855;28;20145;-75
2022/05/01 03:32:55;;;;;;;8.90;6.32;;;;;;;2.47;95.58;102484.69;5016990;28;20033;-75
2022/05/01 03:35:21;;;;;;;9.82;5.70;;;;;;;2.48;95.60;102477.69;5012252;28;20510;-76
2022/05/01 03:37:46;;;;;;;14.15;6.90;;;;;;;2.52;95.56;102487.13;5008832;28;20057;-76
2022/05/01 03:40:15;;;;;;;8.30;5.82;;;;;;;2.53;94.86;102477.56;4994367;28;20032;-76
2022/05/01 03:42:42;;;;;;;7.38;5.07;;;;;;;2.52;93.42;102474.06;5004751;28;20075;-76
2022/05/01 03:45:09;;;;;;;10.48;6.10;;;;;;;2.40;93.64;102462.38;4985659;28;20046;-77
2022/05/01 03:47:34;;;;;;;10.15;6.28;;;;;;;2.51;93.51;102476.75;5010323;28;20021;-75
2022/05/01 03:50:00;;;;;;;10.30;6.07;;;;;;;2.41;93.86;102463.22;5002491;28;20049;-76
2022/05/01 03:52:25;;;;;;;7.50;5.60;;;;;;;2.41;94.08;102479.69;5005454;28;20022;-75
2022/05/01 03:54:51;;;;;;;8.93;5.80;;;;;;;2.42;94.54;102476.19;5007811;28;20034;-76
2022/05/01 03:57:16;;;;;;;7.38;5.47;;;;;;;2.40;94.31;102477.16;5026383;28;20519;-76
2022/05/01 03:59:42;;;;;;;7.70;5.07;;;;;;;2.42;93.35;102478.81;5016526;28;20061;-74
2022/05/01 04:02:07;;;;;;;6.90;4.88;;;;;;;2.39;92.52;102480.66;5006081;28;20091;-76
2022/05/01 04:04:32;;;;;;;7.68;5.55;;;;;;;2.40;91.58;102480.63;4998091;28;20121;-76
2022/05/01 04:06:58;;;;;;;9.23;5.03;;;;;;;2.31;91.11;102469.66;5005721;28;20197;-76
2022/05/01 04:09:24;;;;;;;8.38;5.03;;;;;;;2.35;91.23;102474.72;5013468;28;20121;-76
2022/05/01 04:11:50;;;;;;;12.13;5.30;;;;;;;2.40;90.18;102483.22;5010294;28;20036;-75
2022/05/01 04:14:15;;;;;;;8.02;5.65;;;;;;;2.44;89.39;102490.03;5014196;28;20026;-75
2022/05/01 04:16:40;;;;;;;8.15;5.00;;;;;;;2.47;89.34;102489.91;5010728;28;20025;-76
2022/05/01 04:19:07;;;;;;;7.18;5.07;;;;;;;2.40;89.37;102474.56;5013248;28;20026;-76
2022/05/01 04:21:33;;;;;;;7.55;5.20;;;;;;;2.50;88.36;102493.28;4993270;28;20368;-75
2022/05/01 04:23:58;;;;;;;7.53;5.22;;;;;;;2.44;89.71;102481.34;4966025;28;20406;-76
2022/05/01 04:26:23;;;;;;;7.15;5.07;;;;;;;2.57;89.90;102494.75;5010733;28;20079;-77
2022/05/01 04:31:32;;;;;;;6.63;4.70;;;;;;;2.63;89.66;102490.16;4991108;28;20072;-75
2022/05/01 04:33:58;;;;;;;5.38;4.22;;;;;;;2.66;88.99;102495.28;4998131;28;20120;-75
2022/05/01 04:36:23;;;;;;;6.25;4.82;;;;;;;2.59;89.98;102477.31;5007563;28;20244;-76
2022/05/01 04:38:49;;;;;;;8.18;5.07;;;;;;;2.75;90.97;102493.22;5012486;28;20041;-76
2022/05/01 04:41:18;;;;;;;7.05;5.18;;;;;;;2.78;91.67;102496.53;5004353;28;20050;-75
2022/05/01 04:43:43;;;;;;;8.45;5.05;;;;;;;2.82;92.47;102500.75;5011528;28;20040;-76
2022/05/01 04:46:08;;;;;;;6.50;5.07;;;;;;;2.88;92.09;102504.88;5013911;28;20029;-75
2022/05/01 04:48:34;;;;;;;5.68;5.07;;;;;;;2.91;92.09;102504.75;5012209;28;20825;-76
2022/05/01 04:51:00;;;;;;;6.32;4.15;;;;;;;2.92;91.28;102510.81;5010385;28;20230;-75
2022/05/01 04:53:26;;;;;;;6.97;4.72;;;;;;;2.95;91.24;102510.72;5004152;28;20406;-75
2022/05/01 04:55:54;;;;;;;7.32;4.78;;;;;;;2.96;91.79;102496.75;5007335;28;20360;-74
2022/05/01 04:58:23;;;;;;;7.82;6.20;;;;;;;3.04;92.25;102511.19;5008848;28;20038;-76
2022/05/01 05:00:48;;;;;;;9.48;5.50;;;;;;;3.10;92.44;102515.31;5013410;28;20213;-76
2022/05/01 05:03:14;;;;;;;9.05;5.63;;;;;;;3.12;91.96;102512.66;5009509;28;20421;-76
2022/05/01 05:05:39;;;;;;;5.95;4.55;;;;;;;3.11;91.55;102496.13;5011523;28;20595;-76
2022/05/01 05:10:50;;;;;;;9.52;4.97;;;;;;;3.45;92.43;102519.13;5005830;28;20103;-76
2022/05/01 05:13:23;;;;;;;7.55;5.03;;;;;;;3.53;91.16;102524.03;5011341;28;20475;-76
2022/05/01 05:15:49;;;;;;;10.70;6.43;;;;;;;3.57;91.66;102515.16;4999022;28;20506;-76
2022/05/01 05:18:14;;;;;;;9.75;6.93;;;;;;;3.74;92.34;102519.66;5008355;28;20030;-75
2022/05/01 05:20:40;;;;;;;11.35;6.70;;;;;;;3.76;93.11;102512.63;5010100;28;20049;-76
2022/05/01 05:23:06;;;;;;;9.90;7.13;;;;;;;3.94;93.53;102518.81;5009001;28;20026;-75
2022/05/01 05:25:31;;;;;;;10.00;6.38;;;;;;;4.03;93.23;102528.00;5004377;28;20033;-75
2022/05/01 05:27:57;;;;;;;11.52;6.03;;;;;;;4.12;93.92;102527.63;5006958;28;20402;-76
2022/05/01 05:30:22;;;;;;;9.32;6.78;;;;;;;4.24;93.22;102523.63;5008120;28;20664;-75
2022/05/01 05:32:48;;;;;;;10.20;6.72;;;;;;;4.36;94.53;102530.94;5010925;28;20034;-76
2022/05/01 05:35:13;;;;;;;10.13;6.75;;;;;;;4.49;93.69;102523.41;5009243;28;20626;-76
2022/05/01 05:37:38;;;;;;;12.18;7.50;;;;;;;4.56;95.43;102529.19;5009164;28;20333;-76
2022/05/01 05:40:04;;;;;;;12.98;7.55;;;;;;;4.66;95.01;102533.06;5011203;28;20071;-75
2022/05/01 05:42:30;;;;;;;14.38;7.32;;;;;;;4.81;95.33;102527.13;5006035;28;20050;-75
2022/05/01 05:44:55;;;;;;;9.93;7.13;;;;;;;4.97;94.37;102531.66;4992903;28;20045;-75
2022/05/01 05:47:20;;;;;;;13.55;7.03;;;;;;;5.09;95.05;102531.06;5003314;28;20017;-76
2022/05/01 05:49:47;;;;;;;13.98;6.97;;;;;;;5.23;94.94;102533.06;5015645;28;20033;-75
2022/05/01 05:52:12;;;;;;;11.18;7.70;;;;;;;5.34;94.94;102539.44;5003095;28;20383;-76
2022/05/01 05:54:39;;;;;;;10.07;7.18;;;;;;;5.33;95.39;102501.13;5009838;28;20056;-76
2022/05/01 05:57:04;;;;;;;9.13;6.43;;;;;;;5.53;95.09;102522.81;5007135;28;20151;-75
2022/05/01 05:59:29;;;;;;;12.80;7.60;;;;;;;5.71;94.55;102535.03;4997161;28;20128;-75
2022/05/01 06:01:55;;;;;;;9.05;7.40;;;;;;;5.90;95.00;102534.06;5008864;28;20121;-75
2022/05/01 06:04:20;;;;;;;8.73;5.95;;;;;;;6.02;94.26;102528.25;4986315;28;20042;-75
2022/05/01 06:06:46;;;;;;;10.18;6.28;;;;;;;6.06;92.96;102535.03;4996533;28;20037;-77
2022/05/01 06:09:11;;;;;;;9.40;6.75;;;;;;;5.96;91.73;102504.97;5008846;28;20270;-76
2022/05/01 06:11:36;;;;;;;12.70;6.57;;;;;;;6.23;92.79;102514.94;5003483;28;20132;-76
2022/05/01 06:14:03;;;;;;;9.10;6.15;;;;;;;6.44;92.37;102521.66;5006824;28;20026;-76
2022/05/01 06:16:28;;;;;;;10.00;6.22;;;;;;;6.54;92.68;102511.53;5006974;28;20061;-76
2022/05/01 06:18:53;;;;;;;9.05;6.43;;;;;;;6.75;92.73;102514.75;4987711;28;20040;-75
2022/05/01 06:21:19;;;;;;;8.50;5.93;;;;;;;6.96;91.45;102516.19;5003080;28;20061;-76
2022/05/01 06:23:47;;;;;;;9.88;6.00;;;;;;;7.23;91.32;102539.22;5003117;28;20037;-76
2022/05/01 06:26:13;;;;;;;9.43;5.82;;;;;;;7.36;90.15;102531.47;5006463;28;20349;-76
2022/05/01 06:28:38;;;;;;;10.38;6.28;;;;;;;7.43;89.76;102514.44;5009497;28;20435;-76
2022/05/01 06:31:03;;;;;;;8.95;5.35;;;;;;;7.74;89.67;102538.94;4987990;28;20061;-75
2022/05/01 06:33:30;;;;;;;6.88;5.50;;;;;;;7.78;89.15;102527.31;5005810;28;20017;-76
2022/05/01 06:35:56;;;;;;;8.57;5.57;;;;;;;7.91;88.70;102519.56;5009389;28;20033;-75
2022/05/01 06:38:22;;;;;;;10.07;5.88;;;;;;;8.15;87.79;102527.75;5003456;28;20037;-75
2022/05/01 06:40:48;;;;;;;6.25;4.80;;;;;;;8.31;88.44;102531.13;5004786;28;20030;-76
2022/05/01 06:43:16;;;;;;;8.75;5.88;;;;;;;8.61;88.48;102538.94;5003012;28;20065;-75
2022/05/01 06:45:42;;;;;;;9.57;6.20;;;;;;;9.02;87.85;102540.75;5005383;28;20112;-76
2022/05/01 06:48:10;;;;;;;10.52;6.20;;;;;;;9.65;87.63;102536.63;5007762;28;20049;-76
2022/05/01 06:50:36;;;;;;;8.88;6.38;;;;;;;10.37;85.50;102538.81;5000947;28;20157;-76
2022/05/01 06:53:02;;;;;;;8.90;5.55;;;;;;;11.25;83.82;102546.59;4994265;28;20034;-77
2022/05/01 06:55:27;;;;;;;9.43;5.15;;;;;;;12.03;79.82;102541.72;5004189;28;20053;-77
2022/05/01 06:57:53;;;;;;;8.63;5.25;;;;;;;12.79;75.96;102547.25;5014340;28;20116;-76
2022/05/01 07:00:20;;;;;;;6.13;4.38;;;;;;;13.46;72.03;102519.72;5008281;28;20079;-77
2022/05/01 07:02:50;;;;;;;6.55;4.25;;;;;;;14.22;67.59;102538.03;5002168;28;20508;-77
2022/05/01 07:05:15;;;;;;;5.18;4.07;;;;;;;15.04;66.67;102545.88;5003421;28;20030;-76
2022/05/01 07:07:41;;;;;;;7.53;3.90;;;;;;;15.88;64.26;102555.16;5007689;28;20080;-76
2022/05/01 07:10:08;;;;;;;6.43;3.90;;;;;;;16.43;62.07;102555.25;5004805;28;20083;-76
2022/05/01 07:12:34;;;;;;;4.85;4.07;;;;;;;17.14;60.36;102553.75;5006209;28;20029;-76
2022/05/01 07:15:00;;;;;;;7.60;4.05;;;;;;;17.45;55.94;102556.88;5005684;28;20120;-76
2022/05/01 07:17:26;;;;;;;4.18;3.78;;;;;;;16.60;57.16;102556.31;5005417;28;20586;-76
2022/05/01 07:19:52;;;;;;;7.18;4.45;;;;;;;16.68;59.52;102537.75;5005931;28;20025;-77
2022/05/01 07:22:17;;;;;;;3.80;3.45;;;;;;;17.62;56.30;102553.34;5006069;28;20128;-77
2022/05/01 07:24:43;;;;;;;4.60;3.65;;;;;;;18.14;56.49;102551.69;4995906;28;20041;-76
2022/05/01 07:27:09;;;;;;;4.15;2.63;;;;;;;18.73;51.42;102552.66;5007647;28;20033;-77
2022/05/01 07:29:34;;;;;;;5.28;2.50;;;;;;;19.21;51.12;102555.63;5007628;28;20513;-77
2022/05/01 07:32:00;;;;;;;3.20;2.40;;;;;;;18.79;49.43;102557.41;5008243;28;20048;-78
2022/05/01 07:34:25;;;;;;;5.40;2.47;;;;;;;18.27;50.81;102557.47;5010887;28;20282;-77
2022/05/01 07:36:51;;;;;;;8.43;3.45;;;;;;;17.91;52.01;102554.91;5011441;28;20037;-77
2022/05/01 07:39:16;;;;;;;5.13;3.50;;;;;;;18.17;52.97;102562.09;5009292;28;20140;-76
2022/05/01 07:41:41;;;;;;;4.25;3.38;;;;;;;18.80;51.22;102556.38;5010192;28;20081;-78
2022/05/01 07:44:13;;;;;;;5.20;2.85;;;;;;;19.65;49.76;102545.41;5001094;28;20034;-77
2022/05/01 07:46:40;;;;;;;6.45;2.42;;;;;;;20.71;45.72;102551.53;5010845;28;20025;-77
2022/05/01 07:49:06;;;;;;;4.30;2.88;;;;;;;21.37;46.53;102560.00;5009369;28;20038;-78
2022/05/01 07:51:32;;;;;;;4.40;2.40;;;;;;;21.94;44.81;102564.88;5007562;28;20591;-76
2022/05/01 07:53:58;;;;;;;3.72;2.53;;;;;;;22.33;42.40;102552.22;4990775;28;20029;-78
2022/05/01 07:56:25;;;;;;;4.65;2.88;;;;;;;22.25;42.60;102563.88;5008577;28;20322;-78
2022/05/01 07:58:50;;;;;;;3.83;2.70;;;;;;;22.44;43.61;102556.28;5009588;28;20029;-78
2022/05/01 08:01:16;;;;;;;3.72;2.42;;;;;;;22.39;41.80;102556.84;5005827;28;20087;-78
2022/05/01 08:06:30;;;;;;;5.03;2.80;;;;;;;23.05;42.68;102558.66;4989604;28;20057;-77
2022/05/01 08:08:55;;;;;;;4.40;2.88;;;;;;;23.72;41.08;102555.53;5007400;28;20440;-78
2022/05/01 08:11:21;;;;;;;3.20;1.80;;;;;;;23.51;40.36;102560.97;5008887;28;20029;-77
2022/05/01 08:13:46;;;;;;;4.88;1.75;;;;;;;22.50;40.74;102545.59;5007496;28;20034;-77
2022/05/01 08:16:12;;;;;;;3.38;1.60;;;;;;;21.56;40.99;102531.84;5016304;28;20045;-77
2022/05/01 08:21:21;;;;;;;3.67;2.53;;;;;;;20.40;44.42;102541.56;5010073;28;20048;-77
2022/05/01 08:23:47;;;;;;;3.10;1.52;;;;;;;19.84;44.14;102522.00;5007003;28;20030;-77
2022/05/01 08:26:14;;;;;;;3.88;2.25;;;;;;;19.77;46.07;102529.84;5007611;28;20125;-77
2022/05/01 08:28:41;;;;;;;4.38;1.67;;;;;;;20.98;44.35;102542.16;5007924;28;20030;-77
2022/05/01 08:31:08;;;;;;;5.30;1.83;;;;;;;22.12;42.37;102548.41;5008956;28;20029;-78
2022/05/01 08:33:34;;;;;;;2.85;1.65;;;;;;;23.16;41.00;102539.31;5009333;28;20061;-78
2022/05/01 08:36:02;;;;;;;2.83;1.77;;;;;;;23.40;41.03;102544.28;5009464;28;20025;-78
2022/05/01 08:38:28;;;;;;;3.45;1.98;;;;;;;23.49;38.88;102533.38;5009215;28;20485;-77
2022/05/01 08:40:54;;;;;;;3.42;1.80;;;;;;;22.66;40.84;102536.47;5006974;28;20060;-78
2022/05/01 08:43:21;;;;;;;3.17;1.88;;;;;;;21.80;42.02;102546.03;5008360;28;20042;-77
2022/05/01 08:45:52;;;;;;;4.15;2.42;;;;;;;23.27;39.20;102535.25;5008282;28;20535;-77
2022/05/01 08:48:38;;;;;;;3.67;2.20;;;;;;;21.02;42.02;102523.84;5021291;28;20140;-77
2022/05/01 08:51:04;;;;;;;4.13;1.50;;;;;;;22.63;43.35;102527.97;5021294;28;20065;-77
2022/05/01 08:53:31;;;;;;;2.28;1.83;;;;;;;23.92;39.38;102507.16;5006893;28;20738;-78
2022/05/01 08:55:56;;;;;;;3.13;1.83;;;;;;;25.04;38.41;102526.66;5007281;28;20194;-77
2022/05/01 08:58:23;;;;;;;5.30;2.00;;;;;;;25.24;36.70;102513.22;5016455;28;21023;-77
2022/05/01 09:00:49;;;;;;;3.17;1.88;;;;;;;26.19;35.41;102535.34;5005653;28;20540;-77
2022/05/01 09:03:17;;;;;;;3.05;1.92;;;;;;;26.88;35.12;102522.94;5005497;28;20331;-77
2022/05/01 09:05:43;;;;;;;4.18;2.22;;;;;;;23.83;36.27;102502.13;5001668;28;20073;-78
2022/05/01 09:08:08;;;;;;;2.45;2.10;;;;;;;22.22;38.76;102525.75;5009095;28;20413;-77
2022/05/01 09:10:34;;;;;;;3.33;2.30;;;;;;;22.05;40.49;102503.59;4973048;28;20484;-78
2022/05/01 09:12:59;;;;;;;4.45;2.33;;;;;;;22.54;41.14;102514.59;4988322;28;20040;-76
2022/05/01 09:15:45;;;;;;;4.10;1.92;;;;;;;22.48;38.86;102523.44;5006818;28;20602;-77
2022/05/01 09:18:12;;;;;;;3.28;1.98;;;;;;;22.39;40.14;102521.88;5006812;28;20040;-78
2022/05/01 09:21:00;;;;;;;2.80;1.90;;;;;;;22.42;40.13;102516.09;5003335;28;20036;-80
2022/05/01 09:23:40;;;;;;;2.53;1.90;;;;;;;21.73;40.31;102522.59;5009542;28;20064;-77
2022/05/01 09:26:08;;;;;;;4.05;1.73;;;;;;;20.39;43.61;102496.19;5004979;28;20159;-78
2022/05/01 09:28:34;;;;;;;4.05;2.08;;;;;;;21.50;42.89;102519.94;5006862;28;20037;-77
2022/05/01 09:30:59;;;;;;;4.00;1.92;;;;;;;22.14;41.65;102524.81;5008848;28;20040;-79
2022/05/01 09:33:25;;;;;;;3.20;1.98;;;;;;;22.28;41.99;102508.91;5005462;28;20144;-79
2022/05/01 09:35:51;;;;;;;3.65;2.45;;;;;;;22.45;41.00;102514.91;5009344;28;20404;-78
2022/05/01 09:38:19;;;;;;;3.33;2.20;;;;;;;21.62;41.22;102524.88;5005713;28;20026;-78
2022/05/01 09:41:12;;;;;;;3.80;1.80;;;;;;;22.38;39.99;102518.34;5010942;28;20029;-80
2022/05/01 09:43:43;;;;;;;3.50;2.00;;;;;;;22.33;41.42;102515.38;5005461;28;20045;-77
2022/05/01 09:46:22;;;;;;;3.50;1.83;;;;;;;22.38;40.14;102509.44;5015691;28;20430;-78
2022/05/01 09:49:09;;;;;;;3.63;2.00;;;;;;;22.22;40.56;102521.25;5004010;28;20532;-78
2022/05/01 09:51:38;;;;;;;3.85;2.20;;;;;;;21.92;41.34;102510.44;5006438;28;20052;-78
2022/05/01 09:54:06;;;;;;;5.15;1.83;;;;;;;21.77;41.42;102513.16;5006325;28;20497;-77
2022/05/01 09:56:46;;;;;;;2.95;2.10;;;;;;;21.19;42.18;102511.97;5004466;28;20025;-78
2022/05/01 09:59:12;;;;;;;3.57;2.33;;;;;;;20.99;41.92;102513.44;5007844;28;20485;-77
2022/05/01 10:01:37;;;;;;;2.30;1.98;;;;;;;20.74;43.16;102494.84;5007847;28;20279;-77
2022/05/01 10:04:03;;;;;;;2.33;1.70;;;;;;;20.63;43.14;102497.94;5004997;28;20034;-78
2022/05/01 10:06:31;;;;;;;3.65;1.92;;;;;;;20.45;44.22;102501.69;5007459;28;20063;-77
2022/05/01 10:08:57;;;;;;;3.20;2.17;;;;;;;20.51;43.67;102500.97;5004165;28;20587;-77
2022/05/01 10:11:28;;;;;;;4.25;2.22;;;;;;;20.33;42.30;102501.22;5002459;28;20095;-77
2022/05/01 10:13:55;;;;;;;2.25;2.05;;;;;;;19.65;43.40;102497.22;5005320;28;20057;-77
2022/05/01 10:16:20;;;;;;;3.17;2.08;;;;;;;19.84;44.64;102504.06;5005170;28;20400;-78
2022/05/01 10:18:46;;;;;;;4.60;2.20;;;;;;;20.11;44.73;102500.13;5010100;28;20072;-77
2022/05/01 10:21:12;;;;;;;3.10;2.10;;;;;;;20.17;44.99;102503.16;5003523;28;20040;-77
2022/05/01 10:23:39;;;;;;;4.03;1.90;;;;;;;20.06;44.16;102497.16;4996818;28;20037;-77
2022/05/01 10:26:14;;;;;;;2.83;1.92;;;;;;;20.76;42.48;102503.53;4989780;28;20029;-77
2022/05/01 10:29:02;;;;;;;4.45;2.35;;;;;;;21.51;40.88;102505.53;5022653;28;20117;-77
2022/05/01 10:34:36;;;;;;;2.10;1.90;;;;;;;21.71;42.72;102504.97;5005995;28;20499;-77
2022/05/01 10:37:14;;;;;;;3.42;1.77;;;;;;;23.06;41.04;102501.09;5000669;28;20177;-78
2022/05/01 10:39:40;;;;;;;4.45;2.53;;;;;;;23.40;40.13;102492.25;4986142;28;20030;-78
2022/05/01 10:42:06;;;;;;;3.00;1.85;;;;;;;22.99;40.81;102495.59;5006973;28;20497;-77
2022/05/01 10:44:36;;;;;;;3.80;2.47;;;;;;;21.55;38.70;102501.44;5009978;28;20041;-77
2022/05/01 10:47:13;;;;;;;3.77;2.43;;;;;;;20.03;40.35;102485.91;5000827;28;20190;-78
2022/05/01 10:49:47;;;;;;;4.20;2.33;;;;;;;18.22;44.93;102475.09;5002967;28;20025;-77
2022/05/01 10:52:23;;;;;;;5.90;2.20;;;;;;;19.13;48.68;102486.88;5024601;28;20037;-78
2022/05/01 10:54:50;;;;;;;5.53;2.22;;;;;;;20.34;47.39;102483.31;5010071;28;20120;-76
2022/05/01 10:57:17;;;;;;;4.93;2.10;;;;;;;20.94;45.27;102493.34;5010353;28;20698;-78
2022/05/01 10:59:46;;;;;;;3.10;1.92;;;;;;;21.09;44.56;102479.16;5014005;28;20033;-78
2022/05/01 11:02:41;;;;;;;3.55;1.83;;;;;;;21.43;43.72;102494.03;5012429;28;20407;-78
2022/05/01 11:05:08;;;;;;;2.60;1.60;;;;;;;21.62;44.35;102493.47;5023882;28;20423;-76
2022/05/01 11:07:35;;;;;;;2.28;1.90;;;;;;;21.74;43.36;102475.06;5000924;28;20030;-76
2022/05/01 11:10:04;;;;;;;2.35;1.65;;;;;;;21.99;42.96;102483.66;5020195;28;20026;-76
2022/05/01 11:12:32;;;;;;;5.10;2.20;;;;;;;22.18;42.35;102480.41;5006175;28;20556;-78
2022/05/01 11:15:08;;;;;;;4.35;2.28;;;;;;;22.25;42.76;102482.38;5006523;28;20034;-76
2022/05/01 11:17:36;;;;;;;2.85;1.75;;;;;;;21.89;42.35;102483.13;4979743;28;20077;-78
2022/05/01 11:20:29;;;;;;;2.83;2.05;;;;;;;21.61;43.44;102486.44;5001215;28;20061;-77
2022/05/01 11:22:55;;;;;;;2.78;2.25;;;;;;;20.66;43.43;102476.94;5003752;28;20509;-77
2022/05/01 11:25:38;;;;;;;4.53;2.25;;;;;;;20.45;45.61;102458.78;5008209;28;20026;-78
2022/05/01 11:28:04;;;;;;;5.70;2.47;;;;;;;20.79;45.36;102481.72;5010568;28;20317;-77
2022/05/01 11:30:31;;;;;;;3.97;2.40;;;;;;;20.66;45.97;102486.84;5003370;28;20021;-77
2022/05/01 11:33:06;;;;;;;3.22;2.40;;;;;;;20.40;44.77;102474.53;5009901;28;20027;-76
2022/05/01 11:35:57;;;;;;;5.15;2.50;;;;;;;20.69;45.74;102478.44;5002661;28;20099;-78
2022/05/01 11:38:32;;;;;;;2.50;2.25;;;;;;;20.81;43.41;102474.31;5001144;28;20188;-77
2022/05/01 11:41:02;;;;;;;3.35;2.55;;;;;;;20.91;44.77;102476.78;5007499;28;20030;-78
2022/05/01 11:43:29;;;;;;;3.40;2.28;;;;;;;20.95;45.22;102478.94;5009920;28;20284;-77
2022/05/01 11:45:56;;;;;;;3.28;2.30;;;;;;;20.84;44.39;102468.63;5009717;28;20137;-77
2022/05/01 11:48:22;;;;;;;5.07;2.38;;;;;;;21.19;45.87;102482.44;5009078;28;20022;-77
2022/05/01 11:50:50;;;;;;;3.45;2.42;;;;;;;21.82;44.07;102476.81;5003294;28;20119;-77
2022/05/01 11:53:24;;;;;;;4.18;2.40;;;;;;;22.06;42.18;102473.84;5007030;28;20456;-76
2022/05/01 12:04:30;;;;;;;3.75;2.10;;;;;;;22.59;43.49;102463.75;5001577;28;20290;-77
2022/05/01 12:07:04;;;;;;;4.82;2.03;;;;;;;22.74;41.69;102461.00;4992778;28;20105;-77
2022/05/01 12:09:33;;;;;;;4.05;2.22;;;;;;;22.98;41.64;102464.34;5005680;28;20037;-77